createdAt,value
2023-05-19T00:00:32.135Z,6.57
2023-05-19T00:03:49.938Z,7.18
2023-05-19T00:07:01.203Z,6.38
2023-05-19T00:10:08.060Z,4.57
2023-05-19T00:13:25.355Z,6.78
2023-05-19T00:16:40.000Z,6.07
2023-05-19T00:19:49.623Z,5.38
2023-05-19T00:23:04.561Z,4.53
2023-05-19T00:26:14.951Z,4.33
2023-05-19T00:29:47.736Z,4.90
2023-05-19T00:32:57.607Z,5.93
2023-05-19T00:39:51.929Z,4.28
2023-05-19T00:43:48.850Z,5.17
2023-05-19T00:47:04.626Z,5.60
2023-05-19T00:50:11.764Z,5.45
2023-05-19T00:53:40.030Z,5.15
2023-05-19T01:00:34.286Z,4.47
2023-05-19T01:03:50.749Z,5.10
2023-05-19T01:07:04.153Z,6.13
2023-05-19T01:10:24.080Z,6.68
2023-05-19T01:13:41.824Z,8.00
2023-05-19T01:17:12.440Z,5.97
2023-05-19T01:25:05.754Z,6.90
2023-05-19T01:28:24.121Z,8.77
2023-05-19T01:31:45.379Z,5.72
2023-05-19T01:35:01.020Z,7.67
2023-05-19T01:38:31.108Z,6.55
2023-05-19T01:42:19.031Z,10.52
2023-05-19T01:45:42.188Z,9.20
2023-05-19T01:48:52.385Z,8.20
2023-05-19T01:52:06.455Z,7.00
2023-05-19T01:55:17.491Z,6.25
2023-05-19T01:58:43.691Z,11.32
2023-05-19T02:01:58.946Z,8.02
2023-05-19T02:05:27.150Z,7.90
2023-05-19T02:08:50.180Z,7.83
2023-05-19T02:15:51.803Z,6.82
2023-05-19T02:19:32.855Z,8.23
2023-05-19T02:22:51.003Z,9.43
2023-05-19T02:26:08.881Z,9.27
2023-05-19T02:29:32.454Z,7.00
2023-05-19T02:32:56.308Z,9.85
2023-05-19T02:37:18.280Z,7.38
2023-05-19T02:40:33.985Z,8.95
2023-05-19T02:43:53.163Z,7.97
2023-05-19T02:47:12.406Z,7.60
2023-05-19T02:50:36.048Z,8.80
2023-05-19T02:53:48.643Z,8.25
2023-05-19T02:56:54.381Z,8.90
2023-05-19T03:00:05.976Z,9.10
2023-05-19T03:03:25.381Z,8.35
2023-05-19T03:06:49.614Z,7.97
2023-05-19T03:10:16.871Z,7.63
2023-05-19T03:13:57.374Z,11.13
2023-05-19T03:17:31.272Z,7.47
2023-05-19T03:20:45.715Z,8.70
2023-05-19T03:23:58.334Z,8.23
2023-05-19T03:27:06.191Z,9.30
2023-05-19T03:30:11.334Z,10.85
2023-05-19T03:33:14.976Z,15.93
2023-05-19T03:36:35.083Z,13.23
2023-05-19T03:39:47.148Z,13.50
2023-05-19T03:42:50.640Z,12.88
2023-05-19T03:45:59.173Z,12.35
2023-05-19T03:49:03.028Z,10.70
2023-05-19T03:52:07.542Z,12.55
2023-05-19T03:55:18.397Z,10.70
2023-05-19T03:58:29.953Z,8.85
2023-05-19T04:01:43.786Z,8.63
2023-05-19T04:04:52.005Z,9.53
2023-05-19T04:07:55.759Z,11.88
2023-05-19T04:11:18.890Z,10.30
2023-05-19T04:14:25.787Z,10.27
2023-05-19T04:17:57.485Z,10.85
2023-05-19T04:21:09.142Z,9.60
2023-05-19T04:24:28.805Z,9.23
2023-05-19T04:27:45.085Z,9.90
2023-05-19T04:30:57.933Z,9.48
2023-05-19T04:34:06.584Z,11.05
2023-05-19T04:37:10.776Z,8.83
2023-05-19T04:40:31.811Z,8.63
2023-05-19T04:43:42.528Z,10.93
2023-05-19T04:46:58.461Z,10.35
2023-05-19T04:50:06.673Z,9.63
2023-05-19T04:53:24.069Z,8.23
2023-05-19T04:56:36.050Z,10.00
2023-05-19T04:59:40.248Z,10.35
2023-05-19T05:02:44.088Z,9.63
2023-05-19T05:05:49.369Z,8.52
2023-05-19T05:08:53.864Z,13.40
2023-05-19T05:12:19.758Z,10.13
2023-05-19T05:15:39.021Z,10.20
2023-05-19T05:19:05.432Z,9.32
2023-05-19T05:22:52.803Z,10.05
2023-05-19T05:26:23.818Z,11.40
2023-05-19T05:33:33.333Z,12.95
2023-05-19T05:36:53.562Z,10.10
2023-05-19T05:40:36.760Z,15.25
2023-05-19T06:38:48.286Z,13.30
2023-05-19T10:05:35.974Z,32.83
2023-05-19T12:37:32.347Z,5.50
2023-05-19T12:42:19.392Z,5.03
2023-05-19T12:50:47.067Z,7.10
2023-05-19T12:54:19.313Z,5.63
2023-05-19T13:02:08.970Z,4.43
2023-05-19T13:17:27.213Z,3.83
2023-05-19T13:20:55.612Z,4.10
2023-05-19T13:24:23.963Z,4.05
2023-05-19T13:28:06.596Z,3.30
2023-05-19T13:31:19.541Z,3.45
2023-05-19T13:34:31.780Z,7.93
2023-05-19T13:38:01.766Z,3.92
2023-05-19T13:41:30.067Z,3.75
2023-05-19T13:45:22.931Z,4.72
2023-05-19T13:48:54.658Z,3.97
2023-05-19T13:52:45.694Z,3.73
2023-05-19T13:56:15.305Z,3.28
2023-05-19T13:59:27.284Z,4.93
2023-05-19T14:02:54.776Z,4.03
2023-05-19T14:06:17.951Z,4.47
2023-05-19T14:09:51.194Z,4.70
2023-05-19T14:16:20.915Z,4.45
2023-05-19T14:19:54.039Z,5.57
2023-05-19T14:31:18.489Z,5.28
2023-05-19T14:35:12.174Z,4.03
2023-05-19T14:38:31.326Z,4.55
2023-05-19T14:42:07.283Z,4.88
2023-05-19T14:45:22.393Z,3.40
2023-05-19T14:48:26.203Z,4.03
2023-05-19T14:51:32.137Z,3.45
2023-05-19T14:54:49.539Z,4.03
2023-05-19T14:58:19.959Z,7.93
2023-05-19T15:05:29.651Z,4.13
2023-05-19T15:09:01.392Z,4.68
2023-05-19T15:12:27.968Z,5.03
2023-05-19T15:16:32.079Z,3.60
2023-05-19T15:19:55.794Z,3.63
2023-05-19T15:23:22.372Z,3.95
2023-05-19T15:26:35.288Z,5.30
2023-05-19T15:29:53.720Z,4.43
2023-05-19T15:33:00.324Z,4.22
2023-05-19T15:36:03.993Z,5.00
2023-05-19T15:39:08.577Z,4.28
2023-05-19T15:42:13.602Z,3.90
2023-05-19T15:45:27.622Z,4.30
2023-05-19T15:48:53.010Z,4.57
2023-05-19T15:52:03.975Z,5.87
2023-05-19T15:55:14.809Z,3.20
2023-05-19T15:58:25.752Z,4.30
2023-05-19T16:05:17.455Z,3.58
2023-05-19T16:08:33.025Z,4.10
2023-05-19T16:11:38.766Z,3.40
2023-05-19T16:15:04.122Z,6.18
2023-05-19T16:18:17.748Z,4.38
2023-05-19T16:21:24.413Z,5.70
2023-05-19T16:25:24.787Z,5.07
2023-05-19T16:28:25.536Z,4.13
2023-05-19T16:31:54.393Z,4.80
2023-05-19T16:35:34.436Z,6.22
2023-05-19T16:38:40.239Z,8.38
2023-05-19T16:42:05.831Z,3.57
2023-05-19T16:45:39.001Z,3.35
2023-05-19T16:52:58.812Z,5.35
2023-05-19T16:57:55.474Z,3.92
2023-05-19T17:14:54.089Z,5.55
2023-05-19T17:18:36.568Z,6.90
2023-05-19T17:21:46.101Z,6.37
2023-05-19T17:25:19.961Z,4.35
2023-05-19T17:28:49.848Z,4.78
2023-05-19T17:31:57.879Z,5.25
2023-05-19T17:35:07.666Z,4.20
2023-05-19T17:38:19.757Z,4.17
2023-05-19T17:41:39.289Z,7.22
2023-05-19T17:44:45.034Z,4.75
2023-05-19T17:47:52.292Z,6.40
2023-05-19T17:51:22.833Z,5.75
2023-05-19T17:54:57.401Z,8.50
2023-05-19T17:58:29.936Z,6.10
2023-05-19T18:05:53.150Z,7.88
2023-05-19T18:09:29.283Z,5.22
2023-05-19T18:21:11.916Z,8.57
2023-05-19T19:23:23.235Z,10.63
2023-05-19T19:26:48.316Z,11.50
2023-05-19T19:36:13.513Z,11.18
2023-05-19T19:37:52.053Z,10.82
2023-05-19T19:42:05.734Z,19.20
2023-05-19T19:45:43.308Z,9.73
2023-05-19T19:50:29.012Z,9.93
2023-05-19T20:04:56.697Z,18.67
2023-05-19T20:08:32.217Z,13.65
2023-05-19T20:11:52.584Z,10.55
2023-05-19T20:15:24.014Z,15.00
2023-05-19T20:19:04.334Z,12.33
2023-05-19T20:22:28.897Z,11.50
2023-05-19T20:29:26.826Z,11.98
2023-05-19T20:32:36.768Z,12.40
2023-05-19T20:36:00.472Z,11.53
2023-05-19T20:39:27.941Z,9.15
2023-05-19T20:42:49.124Z,10.60
2023-05-19T20:49:43.365Z,10.38
2023-05-19T20:52:57.772Z,10.57
2023-05-19T20:56:10.425Z,9.82
2023-05-19T21:03:03.281Z,12.00
2023-05-19T21:06:33.182Z,12.63
2023-05-19T21:14:48.289Z,9.90
2023-05-19T21:18:48.407Z,8.75
2023-05-19T21:27:43.663Z,8.82
2023-05-19T21:44:36.407Z,7.93
2023-05-19T21:48:00.531Z,11.82
2023-05-19T21:51:20.060Z,8.60
2023-05-19T21:54:46.956Z,11.13
2023-05-19T21:58:32.550Z,8.30
2023-05-19T22:02:10.534Z,9.73
2023-05-19T22:05:58.614Z,8.15
2023-05-19T22:10:01.197Z,9.80
2023-05-19T22:21:46.384Z,10.05
2023-05-19T22:25:01.841Z,10.18
2023-05-19T22:28:28.249Z,10.03
2023-05-19T22:32:00.999Z,10.30
2023-05-19T22:35:22.900Z,9.60
2023-05-19T22:38:33.051Z,9.63
2023-05-19T22:41:49.848Z,13.73
2023-05-19T22:45:02.942Z,8.93
2023-05-19T22:48:15.410Z,9.75
2023-05-19T22:51:57.737Z,10.05
2023-05-19T22:59:20.481Z,9.73
2023-05-19T23:02:58.331Z,9.50
2023-05-19T23:11:46.603Z,10.15
2023-05-19T23:47:05.265Z,11.33
2023-05-19T23:50:49.026Z,10.90
2023-05-19T23:54:44.029Z,10.57
